Time;durP1;ratioP1;P1;durP2;ratioP2;P2;SDS_P1;SDS_P2;PMS_P1;PMS_P2;Temp;Humidity;BMP_temperature;BMP_pressure;BME280_temperature;BME280_humidity;BME280_pressure;Samples;Min_cycle;Max_cycle;Signal;HPM_P1;HPM_P2
2021/09/23 00:01:08;;;;;;;8.38;4.47;;;;;;;;;;4990656;28;20097;-67
2021/09/23 00:03:55;;;;;;;10.70;4.90;;;;;;;;;;4989328;28;20094;-67
2021/09/23 00:06:25;;;;;;;9.35;4.78;;;;;;;;;;4983668;28;20058;-66
2021/09/23 00:08:53;;;;;;;9.10;4.78;;;;;;;;;;4990245;28;20050;-67
2021/09/23 00:11:22;;;;;;;8.35;4.03;;;;;;;;;;4990639;28;20604;-66
2021/09/23 00:13:50;;;;;;;8.88;4.70;;;;;;;;;;4992433;28;20042;-67
2021/09/23 00:16:20;;;;;;;9.82;4.90;;;;;;;;;;4993531;28;20077;-67
2021/09/23 00:18:50;;;;;;;8.02;4.38;;;;;;;;;;4993748;28;20053;-67
2021/09/23 00:21:18;;;;;;;7.15;4.13;;;;;;;;;;4993575;28;20077;-66
2021/09/23 00:23:48;;;;;;;9.98;4.65;;;;;;;;;;4992998;28;20046;-67
2021/09/23 00:26:17;;;;;;;8.15;4.53;;;;;;;;;;4993252;28;20262;-68
2021/09/23 00:28:45;;;;;;;9.93;4.97;;;;;;;;;;4992196;28;20105;-67
2021/09/23 00:31:14;;;;;;;8.88;4.45;;;;;;;;;;4992059;28;20089;-67
2021/09/23 00:33:42;;;;;;;10.35;4.55;;;;;;;;;;4992853;28;20056;-67
2021/09/23 00:36:11;;;;;;;8.80;4.90;;;;;;;;;;4991799;28;20066;-66
2021/09/23 00:38:40;;;;;;;8.63;4.80;;;;;;;;;;4993967;28;20101;-67
2021/09/23 00:41:08;;;;;;;12.45;4.70;;;;;;;;;;4992694;28;20050;-67
2021/09/23 00:43:37;;;;;;;9.65;4.38;;;;;;;;;;4992114;28;20077;-67
2021/09/23 00:46:05;;;;;;;6.88;4.13;;;;;;;;;;4990747;28;20105;-67
2021/09/23 00:48:34;;;;;;;10.07;4.68;;;;;;;;;;4993350;28;20046;-66
2021/09/23 00:51:02;;;;;;;8.73;4.47;;;;;;;;;;4992842;28;20066;-67
2021/09/23 00:53:32;;;;;;;7.40;3.85;;;;;;;;;;4992680;28;20050;-67
2021/09/23 00:56:02;;;;;;;9.93;4.60;;;;;;;;;;4991544;28;20449;-67
2021/09/23 00:58:31;;;;;;;7.22;3.97;;;;;;;;;;4992846;28;20498;-67
2021/09/23 01:00:59;;;;;;;8.05;4.40;;;;;;;;;;4983491;28;20082;-67
2021/09/23 01:03:28;;;;;;;9.23;4.30;;;;;;;;;;4982659;28;20046;-68
2021/09/23 01:05:56;;;;;;;8.73;4.50;;;;;;;;;;4982256;28;20050;-67
2021/09/23 01:08:25;;;;;;;8.68;4.18;;;;;;;;;;4992601;28;20054;-67
2021/09/23 01:10:54;;;;;;;9.85;4.60;;;;;;;;;;4992664;28;20486;-66
2021/09/23 01:13:24;;;;;;;6.80;3.88;;;;;;;;;;4991453;28;20100;-67
2021/09/23 01:15:52;;;;;;;11.45;5.32;;;;;;;;;;4992122;28;20470;-67
2021/09/23 01:18:20;;;;;;;7.65;3.97;;;;;;;;;;4991794;28;20549;-67
2021/09/23 01:20:49;;;;;;;7.43;4.45;;;;;;;;;;4993119;28;20442;-67
2021/09/23 01:23:18;;;;;;;9.20;4.05;;;;;;;;;;4991302;28;20112;-67
2021/09/23 01:25:47;;;;;;;11.70;4.80;;;;;;;;;;4990963;28;20435;-67
2021/09/23 01:28:15;;;;;;;9.23;4.40;;;;;;;;;;4991503;28;20105;-68
2021/09/23 01:30:43;;;;;;;11.63;3.92;;;;;;;;;;4992267;28;20185;-67
2021/09/23 01:33:12;;;;;;;7.47;3.85;;;;;;;;;;4990597;28;20097;-68
2021/09/23 01:35:40;;;;;;;9.20;4.63;;;;;;;;;;4992351;28;20046;-67
2021/09/23 01:38:08;;;;;;;9.63;4.13;;;;;;;;;;4992237;28;20089;-67
2021/09/23 01:40:38;;;;;;;9.85;4.97;;;;;;;;;;4992595;28;20458;-67
2021/09/23 01:43:06;;;;;;;8.77;4.00;;;;;;;;;;4990954;28;20130;-67
2021/09/23 01:45:35;;;;;;;7.53;3.67;;;;;;;;;;4992026;28;20066;-67
2021/09/23 01:48:03;;;;;;;7.57;4.28;;;;;;;;;;4990448;28;20430;-67
2021/09/23 01:50:31;;;;;;;7.60;4.20;;;;;;;;;;4992504;28;20085;-67
2021/09/23 01:52:59;;;;;;;9.02;4.15;;;;;;;;;;4991190;28;20524;-67
2021/09/23 01:55:28;;;;;;;7.72;3.83;;;;;;;;;;4991140;28;20502;-68
2021/09/23 01:57:57;;;;;;;9.80;3.70;;;;;;;;;;4992165;28;20077;-68
2021/09/23 02:00:26;;;;;;;7.30;4.13;;;;;;;;;;4991449;28;20049;-68
2021/09/23 02:02:55;;;;;;;7.25;3.97;;;;;;;;;;4992367;28;20055;-68
2021/09/23 02:05:24;;;;;;;8.77;4.00;;;;;;;;;;4990870;28;20050;-67
2021/09/23 02:07:52;;;;;;;8.07;3.92;;;;;;;;;;4992660;28;21432;-67
2021/09/23 02:10:20;;;;;;;6.65;3.65;;;;;;;;;;4991833;28;21465;-67
2021/09/23 02:12:48;;;;;;;7.60;4.03;;;;;;;;;;4991754;28;20112;-68
2021/09/23 02:15:18;;;;;;;6.97;4.03;;;;;;;;;;4991299;28;20046;-67
2021/09/23 02:17:47;;;;;;;6.60;3.60;;;;;;;;;;4991690;28;20047;-67
2021/09/23 02:20:15;;;;;;;7.97;3.88;;;;;;;;;;4991283;28;20046;-67
2021/09/23 02:22:43;;;;;;;6.90;3.80;;;;;;;;;;4991746;28;20225;-67
2021/09/23 02:25:12;;;;;;;7.18;3.78;;;;;;;;;;4990985;28;20047;-67
2021/09/23 02:27:41;;;;;;;7.30;3.65;;;;;;;;;;4990739;28;20088;-67
2021/09/23 02:30:09;;;;;;;10.05;4.68;;;;;;;;;;4989412;28;20050;-67
2021/09/23 02:32:39;;;;;;;8.40;4.50;;;;;;;;;;4986289;28;20472;-67
2021/09/23 02:35:08;;;;;;;7.72;3.88;;;;;;;;;;4990243;28;20141;-67
2021/09/23 02:37:36;;;;;;;6.43;3.83;;;;;;;;;;4990636;28;20106;-67
2021/09/23 02:40:07;;;;;;;7.53;4.13;;;;;;;;;;4991440;28;20047;-67
2021/09/23 02:42:35;;;;;;;6.53;3.45;;;;;;;;;;4988911;28;20101;-67
2021/09/23 02:45:04;;;;;;;6.90;3.55;;;;;;;;;;4990309;28;20077;-68
2021/09/23 02:47:33;;;;;;;9.10;4.82;;;;;;;;;;4990948;28;20058;-67
2021/09/23 02:50:02;;;;;;;6.78;4.13;;;;;;;;;;4991262;28;20088;-67
2021/09/23 02:52:30;;;;;;;7.35;3.78;;;;;;;;;;4990537;28;20050;-67
2021/09/23 02:54:59;;;;;;;6.40;3.33;;;;;;;;;;4990401;28;20062;-69
2021/09/23 02:57:27;;;;;;;8.48;4.22;;;;;;;;;;4990752;28;20073;-69
2021/09/23 02:59:55;;;;;;;7.45;3.65;;;;;;;;;;4991988;28;20077;-68
2021/09/23 03:02:24;;;;;;;8.25;3.88;;;;;;;;;;4991240;28;20554;-67
2021/09/23 03:04:53;;;;;;;7.78;3.83;;;;;;;;;;4990412;28;20050;-68
2021/09/23 03:07:23;;;;;;;10.07;3.63;;;;;;;;;;4991051;28;20054;-67
2021/09/23 03:09:51;;;;;;;7.35;3.97;;;;;;;;;;4990932;28;21279;-67
2021/09/23 03:12:19;;;;;;;8.70;4.43;;;;;;;;;;4990232;28;20038;-67
2021/09/23 03:14:48;;;;;;;8.13;3.72;;;;;;;;;;4990220;28;20069;-67
2021/09/23 03:17:17;;;;;;;9.05;3.97;;;;;;;;;;4988171;28;20050;-67
2021/09/23 03:19:45;;;;;;;7.78;4.32;;;;;;;;;;4991420;28;20054;-67
2021/09/23 03:22:16;;;;;;;7.22;4.05;;;;;;;;;;4990086;28;20101;-69
2021/09/23 03:24:48;;;;;;;8.25;3.97;;;;;;;;;;4972996;28;20085;-67
2021/09/23 03:27:16;;;;;;;7.85;3.85;;;;;;;;;;4989508;28;20047;-68
2021/09/23 03:29:45;;;;;;;9.68;4.18;;;;;;;;;;4985036;28;20108;-67
2021/09/23 03:32:13;;;;;;;11.57;3.75;;;;;;;;;;4984615;28;20108;-67
2021/09/23 03:34:55;;;;;;;8.60;3.70;;;;;;;;;;2090123;28;10024389;-67
2021/09/23 03:37:23;;;;;;;7.07;3.40;;;;;;;;;;3613655;28;10001450;-67
2021/09/23 03:39:53;;;;;;;11.70;4.50;;;;;;;;;;4990067;28;20667;-67
2021/09/23 03:42:21;;;;;;;9.52;4.25;;;;;;;;;;4989884;28;20050;-67
2021/09/23 03:44:50;;;;;;;12.32;5.22;;;;;;;;;;4990093;28;20046;-67
2021/09/23 03:47:18;;;;;;;11.48;4.70;;;;;;;;;;4992776;28;20141;-67
2021/09/23 03:49:46;;;;;;;16.48;5.72;;;;;;;;;;4994881;28;20050;-67
2021/09/23 03:52:15;;;;;;;16.30;6.32;;;;;;;;;;4993657;28;20050;-68
2021/09/23 03:54:43;;;;;;;18.40;6.72;;;;;;;;;;4993941;28;20058;-69
2021/09/23 03:57:13;;;;;;;13.73;5.47;;;;;;;;;;4990997;28;20042;-67
2021/09/23 03:59:41;;;;;;;11.35;4.97;;;;;;;;;;4994365;28;20070;-67
2021/09/23 04:02:10;;;;;;;10.82;4.95;;;;;;;;;;4992485;28;20050;-67
2021/09/23 04:04:39;;;;;;;9.02;4.50;;;;;;;;;;4987291;28;20582;-68
2021/09/23 04:07:07;;;;;;;9.93;4.30;;;;;;;;;;4994215;28;20085;-67
2021/09/23 04:09:38;;;;;;;8.82;4.15;;;;;;;;;;4994113;28;20050;-67
2021/09/23 04:12:06;;;;;;;9.45;3.92;;;;;;;;;;4992876;28;20073;-67
2021/09/23 04:14:36;;;;;;;7.88;3.88;;;;;;;;;;4992686;28;20529;-67
2021/09/23 04:17:04;;;;;;;8.05;4.00;;;;;;;;;;4991817;28;20078;-67
2021/09/23 04:19:33;;;;;;;9.95;3.50;;;;;;;;;;4994193;28;20100;-67
2021/09/23 04:22:01;;;;;;;7.88;4.30;;;;;;;;;;4993493;28;20051;-67
2021/09/23 04:24:29;;;;;;;7.65;4.00;;;;;;;;;;4990967;28;20383;-68
2021/09/23 04:26:58;;;;;;;6.15;3.60;;;;;;;;;;4990381;28;20109;-68
2021/09/23 04:29:26;;;;;;;7.07;4.10;;;;;;;;;;4992043;28;20046;-67
2021/09/23 04:31:56;;;;;;;6.70;3.35;;;;;;;;;;4993413;28;20514;-67
2021/09/23 04:34:24;;;;;;;7.13;3.40;;;;;;;;;;4990270;28;20093;-67
2021/09/23 04:36:53;;;;;;;7.93;3.90;;;;;;;;;;4992362;28;20129;-67
2021/09/23 04:39:22;;;;;;;8.05;3.75;;;;;;;;;;4976752;28;20487;-67
2021/09/23 04:41:50;;;;;;;6.65;4.00;;;;;;;;;;4977168;28;20094;-68
2021/09/23 04:44:18;;;;;;;8.57;4.10;;;;;;;;;;4984966;28;20042;-68
2021/09/23 04:46:47;;;;;;;7.75;4.15;;;;;;;;;;4976483;28;20054;-67
2021/09/23 04:49:17;;;;;;;8.85;4.47;;;;;;;;;;4979051;28;20047;-68
2021/09/23 04:51:47;;;;;;;7.90;3.92;;;;;;;;;;4982078;28;20089;-67
2021/09/23 04:54:16;;;;;;;9.15;4.03;;;;;;;;;;4980554;28;20051;-67
2021/09/23 04:56:44;;;;;;;7.45;4.10;;;;;;;;;;4983900;28;20074;-69
2021/09/23 04:59:13;;;;;;;7.32;3.90;;;;;;;;;;4976151;28;20057;-67
2021/09/23 05:01:41;;;;;;;10.65;4.60;;;;;;;;;;4972620;28;20074;-68
2021/09/23 05:04:10;;;;;;;11.88;4.82;;;;;;;;;;4976225;28;20634;-68
2021/09/23 05:06:39;;;;;;;8.23;3.60;;;;;;;;;;4978149;28;20057;-67
2021/09/23 05:09:08;;;;;;;9.50;4.50;;;;;;;;;;4981830;28;20105;-68
2021/09/23 05:11:36;;;;;;;9.07;4.63;;;;;;;;;;4990018;28;20054;-67
2021/09/23 05:14:05;;;;;;;8.10;4.45;;;;;;;;;;4988146;28;20050;-68
2021/09/23 05:16:33;;;;;;;8.35;3.80;;;;;;;;;;4986327;28;20139;-68
2021/09/23 05:19:02;;;;;;;9.93;4.53;;;;;;;;;;4982837;28;20051;-68
2021/09/23 05:21:30;;;;;;;11.63;4.60;;;;;;;;;;4973184;28;20456;-67
2021/09/23 05:23:59;;;;;;;12.05;5.03;;;;;;;;;;4969681;28;20058;-70
2021/09/23 05:26:28;;;;;;;11.13;4.82;;;;;;;;;;4972229;28;20059;-67
2021/09/23 05:28:56;;;;;;;9.88;4.35;;;;;;;;;;4970974;28;20144;-68
2021/09/23 05:31:24;;;;;;;11.57;4.97;;;;;;;;;;4975090;28;20506;-67
2021/09/23 05:33:54;;;;;;;15.23;5.38;;;;;;;;;;4971239;28;20050;-68
2021/09/23 05:36:23;;;;;;;10.80;4.93;;;;;;;;;;4979849;28;20182;-67
2021/09/23 05:38:51;;;;;;;10.32;4.78;;;;;;;;;;4980609;28;20051;-68
2021/09/23 05:41:21;;;;;;;11.10;4.72;;;;;;;;;;4987507;28;20046;-68
2021/09/23 05:43:50;;;;;;;10.65;4.07;;;;;;;;;;4975245;28;20109;-69
2021/09/23 05:46:18;;;;;;;11.15;4.88;;;;;;;;;;4974350;28;20121;-68
2021/09/23 05:48:46;;;;;;;11.93;4.82;;;;;;;;;;4968994;28;20054;-68
2021/09/23 05:51:15;;;;;;;6.80;3.83;;;;;;;;;;4974253;28;20078;-69
2021/09/23 05:53:43;;;;;;;9.13;4.45;;;;;;;;;;4979563;28;20111;-67
2021/09/23 05:56:11;;;;;;;10.95;4.28;;;;;;;;;;4982578;28;20469;-67
2021/09/23 05:58:41;;;;;;;11.00;4.60;;;;;;;;;;4988065;28;20522;-67
2021/09/23 06:01:10;;;;;;;10.40;5.20;;;;;;;;;;4982274;28;20054;-68
2021/09/23 06:03:49;;;;;;;11.10;4.68;;;;;;;;;;4984429;28;20351;-69
2021/09/23 06:06:18;;;;;;;8.63;4.70;;;;;;;;;;4979574;28;20454;-68
2021/09/23 06:08:47;;;;;;;8.65;4.38;;;;;;;;;;4970440;28;20043;-67
2021/09/23 06:11:15;;;;;;;9.48;4.30;;;;;;;;;;4969749;28;20422;-67
2021/09/23 06:13:46;;;;;;;12.07;5.40;;;;;;;;;;4968746;28;20051;-68
2021/09/23 06:16:15;;;;;;;9.40;4.53;;;;;;;;;;4969412;28;20050;-68
2021/09/23 06:18:45;;;;;;;9.75;4.53;;;;;;;;;;4978243;28;20050;-68
2021/09/23 06:21:13;;;;;;;13.25;5.32;;;;;;;;;;4975720;28;20051;-68
2021/09/23 06:23:42;;;;;;;13.05;5.13;;;;;;;;;;4971392;28;20046;-68
2021/09/23 06:26:10;;;;;;;12.43;5.55;;;;;;;;;;4984836;28;20054;-67
2021/09/23 06:28:39;;;;;;;11.52;5.57;;;;;;;;;;4982053;28;20042;-68
2021/09/23 06:31:09;;;;;;;12.38;5.60;;;;;;;;;;4984541;28;20066;-68
2021/09/23 06:33:37;;;;;;;10.75;5.28;;;;;;;;;;4986438;28;20054;-67
2021/09/23 06:36:06;;;;;;;11.40;5.47;;;;;;;;;;4978120;28;20059;-70
2021/09/23 06:38:35;;;;;;;12.90;5.50;;;;;;;;;;4982192;28;20458;-67
2021/09/23 06:41:04;;;;;;;11.00;5.53;;;;;;;;;;4990601;28;20046;-67
2021/09/23 06:43:33;;;;;;;13.13;6.05;;;;;;;;;;4978213;28;20051;-67
2021/09/23 06:46:01;;;;;;;12.38;5.95;;;;;;;;;;4982566;28;20105;-67
2021/09/23 06:48:31;;;;;;;12.35;5.93;;;;;;;;;;4975188;28;20498;-70
2021/09/23 06:51:00;;;;;;;14.93;5.47;;;;;;;;;;4972496;28;20101;-70
2021/09/23 06:53:28;;;;;;;10.70;5.50;;;;;;;;;;4972500;28;20104;-69
2021/09/23 06:55:57;;;;;;;10.88;5.65;;;;;;;;;;4971580;28;20093;-68
2021/09/23 06:58:25;;;;;;;12.27;5.63;;;;;;;;;;4980025;28;20094;-67
2021/09/23 07:00:53;;;;;;;12.27;5.90;;;;;;;;;;4984406;28;20125;-67
2021/09/23 07:03:22;;;;;;;13.88;5.75;;;;;;;;;;4986811;28;21502;-67
2021/09/23 07:05:52;;;;;;;10.93;5.28;;;;;;;;;;4971962;28;20070;-67
2021/09/23 07:08:21;;;;;;;9.55;5.30;;;;;;;;;;4971287;28;20053;-67
2021/09/23 07:10:50;;;;;;;10.13;5.03;;;;;;;;;;4973011;28;20054;-67
2021/09/23 07:13:19;;;;;;;11.85;5.93;;;;;;;;;;4983726;28;20054;-67
2021/09/23 07:15:48;;;;;;;12.38;6.20;;;;;;;;;;4976333;28;20499;-67
2021/09/23 07:18:17;;;;;;;15.27;5.50;;;;;;;;;;4978111;28;20038;-67
2021/09/23 07:20:46;;;;;;;12.95;5.53;;;;;;;;;;4983120;28;20050;-67
2021/09/23 07:23:16;;;;;;;13.02;6.18;;;;;;;;;;4986736;28;20058;-67
2021/09/23 07:25:44;;;;;;;10.60;5.03;;;;;;;;;;4988805;28;20058;-68
2021/09/23 07:28:16;;;;;;;16.65;5.95;;;;;;;;;;4989118;28;20062;-66
2021/09/23 07:30:44;;;;;;;11.55;5.32;;;;;;;;;;4995965;28;20046;-66
2021/09/23 07:33:13;;;;;;;10.25;4.95;;;;;;;;;;4992319;28;20545;-67
2021/09/23 07:35:42;;;;;;;10.95;5.28;;;;;;;;;;4993882;28;20505;-66
2021/09/23 07:38:11;;;;;;;13.25;5.45;;;;;;;;;;4989088;28;20061;-67
2021/09/23 07:40:41;;;;;;;11.48;5.20;;;;;;;;;;5012130;28;20048;-66
2021/09/23 07:43:10;;;;;;;11.15;4.78;;;;;;;;;;5012749;28;20053;-66
2021/09/23 07:45:39;;;;;;;13.88;5.65;;;;;;;;;;4993101;28;20054;-66
2021/09/23 07:48:07;;;;;;;10.35;5.45;;;;;;;;;;4994799;28;20137;-66
2021/09/23 07:50:36;;;;;;;14.05;5.78;;;;;;;;;;4993881;28;20054;-66
2021/09/23 07:53:05;;;;;;;10.52;5.10;;;;;;;;;;4979997;28;20051;-66
2021/09/23 07:55:34;;;;;;;8.45;4.65;;;;;;;;;;4985589;28;20047;-67
2021/09/23 07:58:04;;;;;;;9.23;4.85;;;;;;;;;;4981290;28;20054;-66
2021/09/23 08:00:33;;;;;;;10.23;5.63;;;;;;;;;;4984141;28;20069;-66
2021/09/23 08:03:02;;;;;;;9.90;4.68;;;;;;;;;;4980684;28;20058;-66
2021/09/23 08:05:32;;;;;;;8.90;4.60;;;;;;;;;;4987926;28;20054;-66
2021/09/23 08:08:02;;;;;;;8.23;4.82;;;;;;;;;;4994729;28;20130;-66
2021/09/23 08:10:31;;;;;;;8.32;4.18;;;;;;;;;;4996309;28;20066;-66
2021/09/23 08:13:00;;;;;;;7.72;4.40;;;;;;;;;;4977073;28;20105;-67
2021/09/23 08:15:30;;;;;;;11.98;4.68;;;;;;;;;;4981816;28;20053;-68
2021/09/23 08:18:00;;;;;;;9.60;4.57;;;;;;;;;;4983776;28;20059;-67
2021/09/23 08:20:29;;;;;;;12.43;4.97;;;;;;;;;;4982930;28;20053;-65
2021/09/23 08:22:58;;;;;;;9.18;4.50;;;;;;;;;;4987022;28;20042;-65
2021/09/23 08:25:26;;;;;;;8.45;4.20;;;;;;;;;;4977449;28;20134;-66
2021/09/23 08:27:55;;;;;;;8.60;4.47;;;;;;;;;;4976832;28;20499;-65
2021/09/23 08:30:25;;;;;;;7.55;4.18;;;;;;;;;;4977591;28;20073;-66
2021/09/23 08:32:57;;;;;;;7.90;4.13;;;;;;;;;;4983835;28;20046;-66
2021/09/23 08:35:26;;;;;;;9.32;4.22;;;;;;;;;;4988039;28;20049;-66
2021/09/23 08:37:54;;;;;;;9.15;4.35;;;;;;;;;;4989576;28;20097;-65
2021/09/23 08:40:27;;;;;;;9.25;4.18;;;;;;;;;;4988468;28;20058;-65
2021/09/23 08:42:56;;;;;;;6.22;3.55;;;;;;;;;;4987108;28;20059;-67
2021/09/23 08:45:25;;;;;;;8.75;3.72;;;;;;;;;;4973379;28;20055;-65
2021/09/23 08:47:54;;;;;;;7.80;3.70;;;;;;;;;;4982705;28;20046;-65
2021/09/23 08:50:25;;;;;;;8.20;3.88;;;;;;;;;;4980700;28;20137;-66
2021/09/23 08:52:54;;;;;;;6.25;3.80;;;;;;;;;;4976319;28;20405;-66
2021/09/23 08:55:24;;;;;;;6.45;3.67;;;;;;;;;;4988788;28;20058;-66
2021/09/23 08:57:53;;;;;;;7.82;4.05;;;;;;;;;;4981330;28;20058;-66
2021/09/23 09:00:22;;;;;;;5.55;2.80;;;;;;;;;;4976500;28;20046;-65
2021/09/23 09:03:00;;;;;;;6.80;3.55;;;;;;;;;;4992543;28;20538;-65
2021/09/23 09:05:32;;;;;;;7.38;3.65;;;;;;;;;;4948415;28;20411;-66
2021/09/23 09:08:04;;;;;;;6.68;3.25;;;;;;;;;;4980364;28;20056;-69
2021/09/23 09:10:33;;;;;;;9.20;3.50;;;;;;;;;;4984895;28;20135;-65
2021/09/23 09:13:03;;;;;;;6.38;3.70;;;;;;;;;;4980976;28;20055;-67
2021/09/23 09:15:33;;;;;;;6.32;3.55;;;;;;;;;;4972712;28;20051;-67
2021/09/23 09:18:13;;;;;;;6.03;3.30;;;;;;;;;;4989451;28;20049;-65
2021/09/23 09:20:54;;;;;;;8.88;3.40;;;;;;;;;;4989138;28;20459;-65
2021/09/23 09:23:23;;;;;;;8.07;3.67;;;;;;;;;;4972491;28;20051;-65
2021/09/23 09:25:52;;;;;;;6.13;3.35;;;;;;;;;;4973738;28;20051;-65
2021/09/23 09:28:21;;;;;;;6.22;3.30;;;;;;;;;;4989239;28;20421;-65
2021/09/23 09:30:57;;;;;;;5.15;3.28;;;;;;;;;;4974944;28;20062;-66
2021/09/23 09:33:35;;;;;;;7.97;3.33;;;;;;;;;;4983121;28;20050;-66
2021/09/23 09:36:06;;;;;;;4.78;2.92;;;;;;;;;;4979919;28;20058;-66
2021/09/23 09:38:35;;;;;;;5.13;3.25;;;;;;;;;;4979667;28;20550;-65
2021/09/23 09:41:11;;;;;;;3.40;2.60;;;;;;;;;;4975851;28;20836;-65
2021/09/23 09:43:39;;;;;;;4.07;2.33;;;;;;;;;;4981662;28;20046;-68
2021/09/23 09:46:23;;;;;;;5.25;2.80;;;;;;;;;;4976477;28;20058;-65
2021/09/23 09:48:59;;;;;;;2.92;2.25;;;;;;;;;;4981170;28;20054;-66
2021/09/23 09:51:37;;;;;;;4.20;2.60;;;;;;;;;;4978326;28;20055;-65
2021/09/23 09:54:07;;;;;;;5.57;2.63;;;;;;;;;;4985195;28;20042;-68
2021/09/23 09:56:36;;;;;;;3.85;2.67;;;;;;;;;;4975361;28;20047;-68
2021/09/23 09:59:05;;;;;;;4.30;2.38;;;;;;;;;;4971201;28;20085;-71
2021/09/23 10:01:41;;;;;;;5.05;2.97;;;;;;;;;;4981337;28;20051;-65
2021/09/23 10:04:11;;;;;;;3.63;2.47;;;;;;;;;;4980281;28;20046;-68
2021/09/23 10:06:42;;;;;;;4.50;2.40;;;;;;;;;;4979160;28;20045;-65
2021/09/23 10:09:11;;;;;;;6.60;2.25;;;;;;;;;;4990455;28;20441;-64
2021/09/23 10:11:41;;;;;;;3.33;2.30;;;;;;;;;;4983550;28;20059;-65
2021/09/23 10:14:11;;;;;;;4.30;2.58;;;;;;;;;;4974160;28;20219;-65
2021/09/23 10:16:47;;;;;;;2.63;1.88;;;;;;;;;;4977058;28;20069;-68
2021/09/23 10:19:17;;;;;;;3.00;2.08;;;;;;;;;;4976763;28;20650;-66
2021/09/23 10:21:51;;;;;;;;;;;;;;;;;;4979891;28;20043;-66
2021/09/23 10:24:22;;;;;;;3.67;1.70;;;;;;;;;;4977630;28;20143;-65
2021/09/23 10:26:51;;;;;;;2.53;1.83;;;;;;;;;;4984509;28;20133;-65
2021/09/23 10:29:20;;;;;;;5.40;1.90;;;;;;;;;;4989371;28;20066;-65
2021/09/23 10:31:49;;;;;;;8.77;2.10;;;;;;;;;;4983930;28;20153;-66
2021/09/23 10:34:19;;;;;;;2.70;1.77;;;;;;;;;;4973725;28;20046;-65
2021/09/23 10:36:47;;;;;;;3.22;2.03;;;;;;;;;;4978552;28;20491;-66
2021/09/23 10:39:18;;;;;;;2.80;1.80;;;;;;;;;;4971274;28;20086;-64
2021/09/23 10:41:48;;;;;;;3.20;1.95;;;;;;;;;;4971447;28;20047;-65
2021/09/23 10:44:17;;;;;;;3.58;2.10;;;;;;;;;;4972904;28;20069;-65
2021/09/23 10:46:45;;;;;;;3.83;1.88;;;;;;;;;;4977996;28;20109;-65
2021/09/23 10:49:15;;;;;;;2.72;1.80;;;;;;;;;;4976723;28;20138;-68
2021/09/23 10:51:45;;;;;;;2.53;1.70;;;;;;;;;;4975967;28;20057;-64
2021/09/23 10:54:22;;;;;;;3.20;1.88;;;;;;;;;;4980197;28;20049;-67
2021/09/23 10:56:52;;;;;;;3.28;2.03;;;;;;;;;;4988397;28;20046;-65
2021/09/23 10:59:22;;;;;;;3.35;1.70;;;;;;;;;;4989315;28;20058;-65
2021/09/23 11:01:50;;;;;;;2.75;1.70;;;;;;;;;;4972136;28;20046;-64
2021/09/23 11:04:31;;;;;;;2.65;1.98;;;;;;;;;;4976865;28;20115;-66
2021/09/23 11:07:06;;;;;;;3.22;1.80;;;;;;;;;;4980936;28;20455;-66
2021/09/23 11:09:42;;;;;;;2.88;2.00;;;;;;;;;;4981252;28;20072;-66
2021/09/23 11:12:12;;;;;;;2.38;1.75;;;;;;;;;;4974354;28;20474;-65
2021/09/23 11:14:49;;;;;;;3.13;1.70;;;;;;;;;;4976120;28;20043;-67
2021/09/23 11:17:20;;;;;;;2.47;1.70;;;;;;;;;;4973450;28;20050;-65
2021/09/23 11:19:55;;;;;;;2.30;1.50;;;;;;;;;;4985448;28;20125;-67
2021/09/23 11:22:31;;;;;;;2.50;1.60;;;;;;;;;;4979767;28;20140;-67
2021/09/23 11:25:03;;;;;;;2.60;1.60;;;;;;;;;;4984023;28;20513;-66
2021/09/23 11:27:33;;;;;;;2.72;1.88;;;;;;;;;;4984335;28;20043;-69
2021/09/23 11:30:08;;;;;;;4.53;1.90;;;;;;;;;;4972409;28;20431;-71
2021/09/23 11:32:51;;;;;;;2.67;1.92;;;;;;;;;;4971886;28;20061;-65
2021/09/23 11:35:21;;;;;;;3.83;1.63;;;;;;;;;;4970485;28;20492;-65
2021/09/23 11:37:51;;;;;;;5.10;1.75;;;;;;;;;;4971506;28;20047;-70
2021/09/23 11:40:29;;;;;;;2.72;1.55;;;;;;;;;;4972615;28;20534;-67
2021/09/23 11:43:01;;;;;;;2.92;1.77;;;;;;;;;;4971202;28;20133;-65
2021/09/23 11:45:36;;;;;;;1.95;1.63;;;;;;;;;;4974172;28;20051;-68
2021/09/23 11:48:10;;;;;;;1.73;1.25;;;;;;;;;;4986540;28;20085;-66
2021/09/23 11:50:46;;;;;;;2.70;1.50;;;;;;;;;;4974583;28;20575;-69
2021/09/23 11:53:18;;;;;;;2.53;1.50;;;;;;;;;;4975025;28;20042;-65
2021/09/23 11:56:01;;;;;;;2.70;1.73;;;;;;;;;;4972935;28;20065;-65
2021/09/23 11:58:32;;;;;;;1.92;1.52;;;;;;;;;;4975869;28;20050;-65
2021/09/23 12:01:07;;;;;;;3.88;1.60;;;;;;;;;;4984059;28;20154;-70
2021/09/23 12:03:41;;;;;;;2.38;1.80;;;;;;;;;;4971801;28;20054;-66
2021/09/23 12:06:11;;;;;;;4.07;2.10;;;;;;;;;;4978228;28;20054;-67
2021/09/23 12:08:40;;;;;;;2.85;1.80;;;;;;;;;;4973924;28;20051;-66
2021/09/23 12:11:16;;;;;;;2.65;1.58;;;;;;;;;;4978732;28;20529;-66
2021/09/23 12:13:46;;;;;;;3.95;1.50;;;;;;;;;;4975902;28;20588;-65
2021/09/23 12:16:25;;;;;;;3.90;2.05;;;;;;;;;;4973874;28;20061;-67
2021/09/23 12:18:54;;;;;;;2.75;1.55;;;;;;;;;;4975324;28;20150;-65
2021/09/23 12:21:23;;;;;;;4.00;1.92;;;;;;;;;;4974587;28;20438;-65
2021/09/23 12:23:52;;;;;;;2.40;1.73;;;;;;;;;;4975142;28;20073;-65
2021/09/23 12:26:22;;;;;;;2.58;1.63;;;;;;;;;;4975348;28;20046;-65
2021/09/23 12:28:57;;;;;;;3.85;1.33;;;;;;;;;;4976507;28;20097;-65
2021/09/23 12:31:38;;;;;;;2.35;1.60;;;;;;;;;;4983000;28;20384;-66
2021/09/23 12:34:08;;;;;;;2.67;1.60;;;;;;;;;;4988487;28;20065;-64
2021/09/23 12:36:39;;;;;;;2.58;1.55;;;;;;;;;;4992877;28;20530;-67
2021/09/23 12:39:18;;;;;;;2.97;2.00;;;;;;;;;;4989488;28;20055;-64
2021/09/23 12:42:19;;;;;;;2.28;1.60;;;;;;;;;;4987555;28;20062;-67
2021/09/23 12:44:56;;;;;;;2.70;2.00;;;;;;;;;;4974330;28;20054;-65
2021/09/23 12:47:25;;;;;;;3.40;1.80;;;;;;;;;;4974856;28;20050;-64
2021/09/23 12:50:05;;;;;;;7.13;1.45;;;;;;;;;;4978338;28;20376;-65
2021/09/23 12:52:42;;;;;;;2.67;1.70;;;;;;;;;;4979386;28;20046;-64
2021/09/23 12:55:15;;;;;;;3.30;1.75;;;;;;;;;;4984655;28;20050;-66
2021/09/23 12:57:48;;;;;;;3.30;1.70;;;;;;;;;;4986447;28;20053;-64
2021/09/23 13:00:20;;;;;;;3.05;1.70;;;;;;;;;;4978892;28;20055;-69
2021/09/23 13:03:00;;;;;;;2.72;1.95;;;;;;;;;;4976616;28;20140;-64
2021/09/23 13:05:30;;;;;;;2.05;1.73;;;;;;;;;;4969944;28;20053;-65
2021/09/23 13:07:58;;;;;;;3.95;1.73;;;;;;;;;;4980631;28;20066;-68
2021/09/23 13:10:30;;;;;;;2.35;1.67;;;;;;;;;;4976920;28;20058;-65
2021/09/23 13:13:00;;;;;;;3.05;1.77;;;;;;;;;;4976483;28;20561;-70
2021/09/23 13:15:45;;;;;;;2.17;1.60;;;;;;;;;;4974868;28;20051;-64
2021/09/23 13:18:15;;;;;;;2.55;1.65;;;;;;;;;;4976734;28;20057;-68
2021/09/23 13:20:51;;;;;;;4.85;1.77;;;;;;;;;;4982593;28;20050;-64
2021/09/23 13:23:20;;;;;;;2.42;1.58;;;;;;;;;;4974698;28;20054;-66
2021/09/23 13:25:49;;;;;;;5.25;1.55;;;;;;;;;;4976177;28;20054;-71
2021/09/23 13:28:19;;;;;;;3.95;1.70;;;;;;;;;;4975322;28;20051;-66
2021/09/23 13:30:50;;;;;;;2.53;1.45;;;;;;;;;;4981068;28;20058;-65
2021/09/23 13:33:19;;;;;;;4.50;1.83;;;;;;;;;;4973314;28;20058;-68
2021/09/23 13:35:49;;;;;;;2.63;1.80;;;;;;;;;;4973774;28;20046;-65
2021/09/23 13:38:17;;;;;;;1.95;1.48;;;;;;;;;;4976017;28;20089;-65
2021/09/23 13:40:46;;;;;;;3.60;1.73;;;;;;;;;;4977247;28;20062;-65
2021/09/23 13:43:14;;;;;;;2.05;1.60;;;;;;;;;;4980522;28;20502;-66
2021/09/23 13:45:44;;;;;;;2.03;1.55;;;;;;;;;;4991274;28;20410;-65
2021/09/23 13:48:14;;;;;;;3.47;1.90;;;;;;;;;;4981937;28;20051;-65
2021/09/23 13:50:44;;;;;;;2.30;1.83;;;;;;;;;;4981572;28;21045;-64
2021/09/23 13:53:12;;;;;;;2.47;1.50;;;;;;;;;;4978178;28;20133;-68
2021/09/23 13:55:42;;;;;;;2.13;1.58;;;;;;;;;;4977007;28;20676;-65
2021/09/23 13:58:11;;;;;;;3.78;1.40;;;;;;;;;;4971322;28;20054;-69
2021/09/23 14:00:40;;;;;;;1.98;1.55;;;;;;;;;;4972841;28;20557;-67
2021/09/23 14:03:11;;;;;;;2.45;1.40;;;;;;;;;;4982692;28;20050;-65
2021/09/23 14:05:41;;;;;;;2.75;1.60;;;;;;;;;;4979567;28;20113;-64
2021/09/23 14:08:10;;;;;;;2.35;1.55;;;;;;;;;;4986821;28;20065;-65
2021/09/23 14:10:39;;;;;;;3.58;1.70;;;;;;;;;;4986477;28;20057;-66
2021/09/23 14:13:07;;;;;;;6.55;1.60;;;;;;;;;;4983171;28;20046;-65
2021/09/23 14:15:43;;;;;;;3.25;1.40;;;;;;;;;;4982181;28;20148;-64
2021/09/23 14:18:12;;;;;;;2.42;1.58;;;;;;;;;;4985408;28;20070;-65
2021/09/23 14:21:00;;;;;;;2.10;1.33;;;;;;;;;;4974811;28;20436;-68
2021/09/23 14:23:29;;;;;;;2.83;1.90;;;;;;;;;;4981367;28;20057;-68
2021/09/23 14:25:57;;;;;;;3.72;1.50;;;;;;;;;;4986118;28;20050;-65
2021/09/23 14:28:26;;;;;;;2.97;1.90;;;;;;;;;;4987107;28;20104;-66
2021/09/23 14:30:54;;;;;;;3.15;1.63;;;;;;;;;;4983103;28;20066;-64
2021/09/23 14:33:24;;;;;;;2.92;1.48;;;;;;;;;;4983901;28;20050;-67
2021/09/23 14:35:52;;;;;;;2.38;1.38;;;;;;;;;;4985381;28;20049;-65
2021/09/23 14:38:22;;;;;;;1.92;1.38;;;;;;;;;;4979246;28;20353;-66
2021/09/23 14:40:51;;;;;;;1.75;1.30;;;;;;;;;;4970404;28;20461;-69
2021/09/23 14:43:19;;;;;;;3.85;1.80;;;;;;;;;;4985470;28;20059;-65
2021/09/23 14:45:48;;;;;;;3.58;1.52;;;;;;;;;;4976727;28;20523;-66
2021/09/23 14:48:17;;;;;;;1.90;1.52;;;;;;;;;;4976329;28;20459;-68
2021/09/23 14:50:46;;;;;;;2.67;1.50;;;;;;;;;;4976427;28;20140;-68
2021/09/23 14:53:14;;;;;;;2.60;1.50;;;;;;;;;;4986889;28;20049;-68
2021/09/23 14:55:44;;;;;;;3.50;1.50;;;;;;;;;;4978352;28;20137;-65
2021/09/23 14:58:13;;;;;;;2.55;1.77;;;;;;;;;;4978852;28;20640;-65